Mucuge, Brazil
Current Conditions -  °F | °C
As of 10:00 AM on Friday 28 Nov 2014 (Local Time) from SBQV Reporting Station
Clear Clear  
Wind Chill: 81°   Ceiling: Unl
Heat Index: 83°   Visibility: 6mi
Dew Point: 66°   Wind: 8mph
Humidity: 61%   Direction: 310°NW
Pressure: 30.09"   Gusts: NA
Location:  13.01°S, 41.37°W
Report Text: SBQV 281300Z 31007KT CAVOK 27/19 Q1019
Loading
Personal Weather Stations






























Interactive Weather Map New forecast layout! Learn more

10-Day Weather Forecast

Advertisements
Track Severe Weather on mobile